This demonstration page uses our WeatherBlox Daily Observations layout. Learn more.

39.92423, -83.80882

Hourly Observations for April 3, 2019

Temp ( °F °C ) Dew Point ( °F °C ) Humidity (%) Winds ( mph kmh ) Pressure ( in mb ) Visibility ( mi km ) Precip ( " mm )
12:56 am 00:56 Clear 42 5.6 29 -1.7 60 60 SW 7 11 30.1 1019 10 16.0934 0 0
1:56 am 01:56 Clear 42 5.6 29 -1.7 60 60 SW 8 13 30.1 1019 10 16.0934 0 0
2:56 am 02:56 Cloudy 44 6.7 31 -0.6 60 60 WSW 12 19 30.1 1019 10 16.0934 0 0
3:56 am 03:56 Clear 44 6.7 30 -1.1 58 58 W 15 24 30.11 1020 10 16.0934 0 0
4:56 am 04:56 Clear 41 5 31 -0.6 67 67 W 10 17 30.13 1020 10 16.0934 0 0
5:56 am 05:56 Clear 38 3.3 33 0.6 83 83 W 6 9 30.17 1022 10 16.0934 0 0
6:56 am 06:56 Clear 36 2.2 33 0.6 89 89 W 7 11 30.21 1023 10 16.0934 0 0
7:56 am 07:56 Sunny 38 3.3 34 1.1 86 86 W 7 11 30.24 1024 10 16.0934 0 0
8:56 am 08:56 Sunny 44 6.7 35 1.7 71 71 W 8 13 30.26 1025 10 16.0934 0 0
9:56 am 09:56 Sunny 48 8.9 35 1.7 61 61 NW 13 20 30.28 1025 10 16.0934 0 0
10:56 am 10:56 Sunny 51 10.6 36 2.2 56 56 NW 14 22 30.3 1026 10 16.0934 0 0
11:56 am 11:56 Sunny 53 11.7 34 1.1 48 48 WNW 14 22 30.32 1027 10 16.0934 0 0
12:56 pm 12:56 Sunny 56 13.3 33 0.6 42 42 W 16 26 30.32 1027 10 16.0934 0 0
1:56 pm 13:56 Sunny 57 13.9 29 -1.7 34 34 WNW 13 20 30.32 1027 10 16.0934 0 0
2:56 pm 14:56 Sunny 58 14.4 30 -1.1 35 35 W 10 17 30.31 1027 10 16.0934 0 0
3:56 pm 15:56 Sunny 58 14.4 28 -2.2 32 32 W 13 20 30.29 1026 10 16.0934 0 0
4:56 pm 16:56 Sunny 59 15 24 -4.4 26 26 WNW 13 20 30.29 1026 10 16.0934 0 0
5:56 pm 17:56 Sunny 58 14.4 25 -3.9 28 28 NW 13 20 30.29 1026 10 16.0934 0 0
6:56 pm 18:56 Cloudy 56 13.3 25 -3.9 30 30 NW 7 11 30.3 1026 10 16.0934 0 0
7:56 pm 19:56 Cloudy 54 12.2 27 -2.8 35 35 NW 6 9 30.31 1026 10 16.0934 0 0
8:56 pm 20:56 Cloudy 51 10.6 31 -0.6 46 46 N 5 7 30.31 1027 10 16.0934 0 0
9:56 pm 21:56 Cloudy 51 10.6 29 -1.7 43 43 Calm 30.33 1027 10 16.0934 0 0
10:56 pm 22:56 Cloudy 50 10 31 -0.6 48 48 Calm 30.35 1028 10 16.0934 0 0
11:56 pm 23:56 Cloudy 47 8.3 32 0 56 56 E 5 7 30.34 1027 10 16.0934 0 0

Powered by AerisWeather